Time;durP1;ratioP1;P1;durP2;ratioP2;P2;SDS_P1;SDS_P2;PMS_P1;PMS_P2;Temp;Humidity;BMP_temperature;BMP_pressure;BME280_temperature;BME280_humidity;BME280_pressure;Samples;Min_cycle;Max_cycle;Signal;HPM_P1;HPM_P2
2022/12/25 00:01:50;;;;;;;15.07;4.68;;;;;;;;;;5063216;28;20073;-84
2022/12/25 00:04:16;;;;;;;10.23;4.28;;;;;;;;;;5064566;28;20028;-84
2022/12/25 00:06:41;;;;;;;10.10;4.18;;;;;;;;;;5063980;28;20440;-84
2022/12/25 00:09:06;;;;;;;10.32;4.30;;;;;;;;;;5061692;28;20480;-83
2022/12/25 00:11:32;;;;;;;12.57;5.18;;;;;;;;;;5057233;28;20036;-83
2022/12/25 00:13:57;;;;;;;15.63;4.80;;;;;;;;;;5052827;28;20450;-82
2022/12/25 00:16:25;;;;;;;12.68;4.32;;;;;;;;;;5058873;28;20039;-83
2022/12/25 00:18:50;;;;;;;13.23;4.43;;;;;;;;;;5058298;28;21350;-83
2022/12/25 00:21:17;;;;;;;12.60;4.57;;;;;;;;;;5059852;28;20024;-84
2022/12/25 00:23:42;;;;;;;12.95;4.53;;;;;;;;;;5064023;28;20029;-84
2022/12/25 00:26:11;;;;;;;12.82;4.30;;;;;;;;;;5055835;28;20049;-84
2022/12/25 00:28:37;;;;;;;14.20;4.57;;;;;;;;;;5057082;28;20107;-85
2022/12/25 00:31:07;;;;;;;12.48;4.30;;;;;;;;;;5065167;28;20525;-85
2022/12/25 00:33:37;;;;;;;11.77;4.50;;;;;;;;;;5066651;28;20417;-83
2022/12/25 00:36:05;;;;;;;13.40;4.47;;;;;;;;;;5064385;28;20075;-84
2022/12/25 00:38:30;;;;;;;11.07;4.25;;;;;;;;;;5068100;28;20025;-84
2022/12/25 00:40:56;;;;;;;14.75;4.25;;;;;;;;;;5057545;28;20028;-82
2022/12/25 00:43:21;;;;;;;11.07;4.10;;;;;;;;;;5065160;28;20025;-83
2022/12/25 00:45:58;;;;;;;12.15;4.03;;;;;;;;;;5071247;28;20388;-84
2022/12/25 00:48:24;;;;;;;8.68;3.80;;;;;;;;;;5062089;28;20032;-81
2022/12/25 00:50:54;;;;;;;13.60;4.53;;;;;;;;;;5065288;28;20536;-83
2022/12/25 00:53:20;;;;;;;10.38;4.20;;;;;;;;;;5059652;28;20024;-83
2022/12/25 00:56:01;;;;;;;9.75;3.70;;;;;;;;;;5066958;28;20541;-84
2022/12/25 00:58:28;;;;;;;11.23;3.95;;;;;;;;;;5065278;28;20039;-84
2022/12/25 01:00:55;;;;;;;11.98;3.88;;;;;;;;;;5062529;28;20052;-84
2022/12/25 01:03:21;;;;;;;11.85;4.38;;;;;;;;;;5055955;28;20024;-83
2022/12/25 01:05:58;;;;;;;15.52;4.50;;;;;;;;;;5076674;28;20029;-84
2022/12/25 01:08:24;;;;;;;13.43;4.07;;;;;;;;;;5061544;28;20097;-84
2022/12/25 01:10:59;;;;;;;12.73;4.15;;;;;;;;;;5057782;28;20044;-84
2022/12/25 01:13:25;;;;;;;16.55;4.43;;;;;;;;;;5064549;28;20056;-83
2022/12/25 01:15:53;;;;;;;9.93;3.47;;;;;;;;;;5059887;28;20067;-84
2022/12/25 01:18:20;;;;;;;11.48;4.65;;;;;;;;;;5065497;28;20043;-84
2022/12/25 01:20:46;;;;;;;12.38;3.78;;;;;;;;;;5060698;28;20522;-84
2022/12/25 01:23:11;;;;;;;14.90;4.07;;;;;;;;;;5064820;28;20104;-84
2022/12/25 01:25:37;;;;;;;9.43;3.63;;;;;;;;;;5056402;28;20042;-82
2022/12/25 01:28:02;;;;;;;8.35;3.65;;;;;;;;;;5061863;28;20043;-84
2022/12/25 01:30:28;;;;;;;12.30;4.00;;;;;;;;;;5065303;28;20082;-84
2022/12/25 01:32:53;;;;;;;10.80;3.97;;;;;;;;;;5072643;28;20024;-83
2022/12/25 01:35:18;;;;;;;12.73;4.25;;;;;;;;;;5053960;28;20048;-84
2022/12/25 01:37:44;;;;;;;9.98;4.30;;;;;;;;;;5055324;28;20036;-84
2022/12/25 01:40:09;;;;;;;11.70;4.25;;;;;;;;;;5054991;28;20039;-81
2022/12/25 01:42:35;;;;;;;13.05;4.30;;;;;;;;;;5057898;28;20036;-81
2022/12/25 01:45:47;;;;;;;9.45;3.97;;;;;;;;;;5054779;28;20079;-82
2022/12/25 01:48:16;;;;;;;12.55;4.00;;;;;;;;;;5052135;28;20396;-84
2022/12/25 01:50:46;;;;;;;9.90;3.88;;;;;;;;;;5060592;28;20032;-84
2022/12/25 01:53:12;;;;;;;10.75;4.25;;;;;;;;;;5056605;28;20103;-84
2022/12/25 01:55:38;;;;;;;13.80;4.60;;;;;;;;;;5056986;28;20062;-84
2022/12/25 01:58:04;;;;;;;12.88;4.60;;;;;;;;;;5061991;28;20016;-84
2022/12/25 02:00:29;;;;;;;14.45;4.10;;;;;;;;;;5059615;28;20427;-83
2022/12/25 02:02:56;;;;;;;11.80;4.20;;;;;;;;;;5063788;28;20056;-85
2022/12/25 02:05:33;;;;;;;11.85;3.95;;;;;;;;;;5059022;28;20435;-84
2022/12/25 02:08:05;;;;;;;12.48;4.13;;;;;;;;;;5053979;28;20025;-80
2022/12/25 02:10:31;;;;;;;11.45;4.05;;;;;;;;;;5051605;28;20040;-84
2022/12/25 02:12:57;;;;;;;9.70;3.78;;;;;;;;;;5061880;28;20068;-82
2022/12/25 02:15:33;;;;;;;11.07;4.20;;;;;;;;;;5063956;28;20135;-84
2022/12/25 02:18:13;;;;;;;10.20;4.15;;;;;;;;;;5051779;28;20036;-84
2022/12/25 02:20:42;;;;;;;11.40;4.13;;;;;;;;;;5053820;28;20514;-84
2022/12/25 02:23:29;;;;;;;7.78;3.88;;;;;;;;;;5058803;28;20508;-84
2022/12/25 02:26:42;;;;;;;9.98;3.85;;;;;;;;;;5056695;28;20068;-83
2022/12/25 02:29:39;;;;;;;10.10;4.00;;;;;;;;;;5035351;28;20036;-83
2022/12/25 02:32:18;;;;;;;9.25;3.83;;;;;;;;;;5056279;28;20408;-83
2022/12/25 02:34:52;;;;;;;10.65;4.25;;;;;;;;;;5052700;28;20036;-80
2022/12/25 02:37:26;;;;;;;10.55;4.00;;;;;;;;;;5057260;28;20029;-85
2022/12/25 02:40:24;;;;;;;11.15;4.28;;;;;;;;;;5056463;28;20049;-83
2022/12/25 03:08:41;;;;;;;10.68;4.05;;;;;;;;;;5055422;28;20060;-83
2022/12/25 03:16:49;;;;;;;9.43;3.97;;;;;;;;;;5056001;28;20043;-85
2022/12/25 03:16:51;;;;;;;10.73;4.00;;;;;;;;;;5055535;28;20119;-82
2022/12/25 03:27:34;;;;;;;9.10;3.88;;;;;;;;;;5063044;28;20055;-83
2022/12/25 03:32:57;;;;;;;8.45;3.65;;;;;;;;;;5064692;28;20110;-84
2022/12/25 03:35:43;;;;;;;8.27;3.78;;;;;;;;;;5065565;28;20025;-84
2022/12/25 03:44:45;;;;;;;9.00;3.75;;;;;;;;;;5059098;28;20079;-84
2022/12/25 04:36:51;;;;;;;6.70;2.88;;;;;;;;;;5067823;28;20518;-84
2022/12/25 04:39:17;;;;;;;8.45;3.20;;;;;;;;;;5066865;28;20025;-84
2022/12/25 04:41:42;;;;;;;8.10;3.35;;;;;;;;;;5061664;28;20086;-83
2022/12/25 04:44:08;;;;;;;6.13;2.90;;;;;;;;;;5064710;28;20059;-84
2022/12/25 04:46:33;;;;;;;7.47;2.70;;;;;;;;;;5058961;28;20032;-82
2022/12/25 04:48:58;;;;;;;6.93;2.63;;;;;;;;;;5059767;28;20032;-84
2022/12/25 04:51:24;;;;;;;8.05;2.78;;;;;;;;;;5056794;28;20074;-83
2022/12/25 04:53:51;;;;;;;7.50;2.90;;;;;;;;;;5065843;28;20029;-85
2022/12/25 04:56:18;;;;;;;7.22;2.88;;;;;;;;;;5062648;28;20024;-84
2022/12/25 04:58:43;;;;;;;5.55;2.65;;;;;;;;;;5059690;28;20544;-85
2022/12/25 05:01:09;;;;;;;9.25;3.03;;;;;;;;;;5063888;28;20027;-83
2022/12/25 05:03:35;;;;;;;5.53;2.28;;;;;;;;;;5062764;28;20365;-83
2022/12/25 05:06:02;;;;;;;6.75;2.42;;;;;;;;;;5066269;28;20025;-83
2022/12/25 05:08:29;;;;;;;7.95;2.58;;;;;;;;;;5064274;28;20029;-81
2022/12/25 05:10:55;;;;;;;6.30;2.78;;;;;;;;;;5058898;28;20120;-85
2022/12/25 05:13:21;;;;;;;4.97;2.28;;;;;;;;;;5063661;28;20430;-84
2022/12/25 05:15:46;;;;;;;5.15;2.17;;;;;;;;;;5064888;28;20052;-84
2022/12/25 05:18:11;;;;;;;8.55;2.67;;;;;;;;;;5063863;28;20025;-84
2022/12/25 05:20:37;;;;;;;5.43;2.75;;;;;;;;;;5064976;28;20025;-83
2022/12/25 05:23:02;;;;;;;6.25;2.38;;;;;;;;;;5060472;28;20056;-83
2022/12/25 05:25:27;;;;;;;5.38;2.15;;;;;;;;;;5059655;28;20112;-83
2022/12/25 05:27:53;;;;;;;6.43;2.67;;;;;;;;;;5062659;28;20078;-84
2022/12/25 05:30:18;;;;;;;6.47;2.55;;;;;;;;;;5067196;28;20024;-83
2022/12/25 05:32:44;;;;;;;5.00;2.35;;;;;;;;;;5058339;28;20112;-84
2022/12/25 05:35:09;;;;;;;5.68;2.60;;;;;;;;;;5055199;28;20028;-84
2022/12/25 05:37:35;;;;;;;5.35;2.65;;;;;;;;;;5056716;28;20033;-82
2022/12/25 05:40:01;;;;;;;6.15;2.50;;;;;;;;;;5067877;28;20452;-84
2022/12/25 05:42:27;;;;;;;4.20;2.53;;;;;;;;;;5063187;28;20111;-84
2022/12/25 05:44:52;;;;;;;5.55;2.58;;;;;;;;;;5063861;28;20108;-84
2022/12/25 05:47:18;;;;;;;6.20;2.45;;;;;;;;;;5064676;28;20032;-84
2022/12/25 05:49:43;;;;;;;4.80;2.55;;;;;;;;;;5065546;28;20095;-84
2022/12/25 05:52:08;;;;;;;6.70;2.72;;;;;;;;;;5066864;28;20029;-83
2022/12/25 05:54:34;;;;;;;5.55;2.40;;;;;;;;;;5059201;28;20030;-84
2022/12/25 05:56:59;;;;;;;7.53;2.90;;;;;;;;;;5071992;28;20442;-84
2022/12/25 05:59:28;;;;;;;8.43;2.50;;;;;;;;;;5057904;28;20035;-84
2022/12/25 06:01:54;;;;;;;7.50;2.70;;;;;;;;;;5065775;28;20024;-83
2022/12/25 06:04:19;;;;;;;6.45;2.45;;;;;;;;;;5066324;28;20476;-83
2022/12/25 06:06:45;;;;;;;6.75;2.45;;;;;;;;;;5066847;28;20040;-84
2022/12/25 06:09:12;;;;;;;6.40;2.40;;;;;;;;;;5070552;28;20119;-84
2022/12/25 06:11:38;;;;;;;4.72;2.35;;;;;;;;;;5070017;28;20533;-84
2022/12/25 06:14:03;;;;;;;3.88;2.20;;;;;;;;;;5057859;28;20162;-84
2022/12/25 06:16:28;;;;;;;4.10;2.40;;;;;;;;;;5057318;28;20020;-84
2022/12/25 06:18:54;;;;;;;7.00;2.58;;;;;;;;;;5059539;28;20024;-85
2022/12/25 06:21:19;;;;;;;5.47;2.13;;;;;;;;;;5064541;28;20396;-83
2022/12/25 06:23:45;;;;;;;5.93;2.22;;;;;;;;;;5057794;28;20044;-84
2022/12/25 06:26:13;;;;;;;6.75;2.47;;;;;;;;;;5064842;28;20127;-84
2022/12/25 06:28:39;;;;;;;5.60;2.28;;;;;;;;;;5062827;28;20025;-81
2022/12/25 06:31:06;;;;;;;6.22;1.92;;;;;;;;;;5057446;28;20041;-83
2022/12/25 06:33:32;;;;;;;3.58;1.95;;;;;;;;;;5056248;28;20160;-84
2022/12/25 06:35:57;;;;;;;6.07;2.38;;;;;;;;;;5059103;28;20103;-84
2022/12/25 06:38:22;;;;;;;3.13;1.90;;;;;;;;;;5059968;28;20036;-82
2022/12/25 06:40:48;;;;;;;4.45;2.35;;;;;;;;;;5059747;28;20043;-83
2022/12/25 06:43:13;;;;;;;4.97;2.17;;;;;;;;;;5060288;28;20043;-83
2022/12/25 06:45:38;;;;;;;7.60;2.20;;;;;;;;;;5061439;28;20476;-84
2022/12/25 06:48:04;;;;;;;3.97;2.40;;;;;;;;;;5059921;28;20028;-83
2022/12/25 06:50:29;;;;;;;4.78;2.20;;;;;;;;;;5059938;28;20033;-84
2022/12/25 06:52:55;;;;;;;5.15;2.47;;;;;;;;;;5068255;28;20028;-84
2022/12/25 06:55:21;;;;;;;5.50;2.25;;;;;;;;;;5062733;28;20024;-84
2022/12/25 06:57:46;;;;;;;5.63;2.20;;;;;;;;;;5060879;28;20557;-84
2022/12/25 07:00:12;;;;;;;6.80;2.35;;;;;;;;;;5061639;28;20024;-82
2022/12/25 07:02:40;;;;;;;4.82;2.53;;;;;;;;;;5061827;28;20039;-81
2022/12/25 07:05:05;;;;;;;6.78;2.40;;;;;;;;;;5065681;28;20024;-84
2022/12/25 07:07:31;;;;;;;4.47;2.03;;;;;;;;;;5065140;28;20478;-82
2022/12/25 07:09:56;;;;;;;7.90;2.53;;;;;;;;;;5054994;28;20110;-85
2022/12/25 07:12:23;;;;;;;5.10;2.22;;;;;;;;;;5059300;28;20055;-84
2022/12/25 07:14:48;;;;;;;3.83;2.22;;;;;;;;;;5058604;28;20095;-84
2022/12/25 07:17:18;;;;;;;3.83;2.17;;;;;;;;;;5061952;28;20485;-84
2022/12/25 07:19:47;;;;;;;4.63;2.10;;;;;;;;;;5065442;28;20028;-84
2022/12/25 07:22:14;;;;;;;4.15;2.30;;;;;;;;;;5065287;28;20512;-81
2022/12/25 07:24:39;;;;;;;4.40;2.00;;;;;;;;;;5060104;28;20017;-84
2022/12/25 07:27:05;;;;;;;5.47;2.28;;;;;;;;;;5059342;28;20439;-84
2022/12/25 07:29:30;;;;;;;5.65;2.10;;;;;;;;;;5062424;28;20044;-85
2022/12/25 07:31:55;;;;;;;3.28;2.00;;;;;;;;;;5060903;28;20035;-84
2022/12/25 07:34:22;;;;;;;6.28;2.20;;;;;;;;;;5055754;28;20033;-81
2022/12/25 07:36:47;;;;;;;4.85;2.20;;;;;;;;;;5064303;28;20055;-84
2022/12/25 07:39:12;;;;;;;4.88;2.30;;;;;;;;;;5061235;28;20067;-84
2022/12/25 07:41:39;;;;;;;5.35;2.40;;;;;;;;;;5053994;28;20016;-83
2022/12/25 07:44:04;;;;;;;5.28;2.33;;;;;;;;;;5064330;28;20136;-83
2022/12/25 07:46:30;;;;;;;6.20;2.28;;;;;;;;;;5054345;28;20612;-79
2022/12/25 07:48:55;;;;;;;5.97;2.58;;;;;;;;;;5054630;28;20788;-81
2022/12/25 07:51:20;;;;;;;5.55;2.40;;;;;;;;;;5040515;28;20481;-85
2022/12/25 07:53:46;;;;;;;3.63;2.05;;;;;;;;;;5065802;28;20028;-85
2022/12/25 07:56:17;;;;;;;4.25;2.20;;;;;;;;;;5057522;28;20024;-84
2022/12/25 07:58:44;;;;;;;4.35;2.10;;;;;;;;;;5057249;28;20039;-85
2022/12/25 08:01:18;;;;;;;4.78;2.40;;;;;;;;;;5058857;28;20027;-84
2022/12/25 08:03:51;;;;;;;5.13;2.30;;;;;;;;;;5058168;28;20028;-85
2022/12/25 08:06:17;;;;;;;4.70;2.42;;;;;;;;;;5057592;28;20400;-84
2022/12/25 08:08:43;;;;;;;4.75;2.40;;;;;;;;;;5076206;28;20492;-82
2022/12/25 08:11:09;;;;;;;4.72;2.03;;;;;;;;;;5060807;28;20020;-85
2022/12/25 08:13:35;;;;;;;5.00;2.28;;;;;;;;;;5053837;28;20090;-80
2022/12/25 08:16:03;;;;;;;5.57;2.65;;;;;;;;;;5055922;28;20083;-83
2022/12/25 08:18:31;;;;;;;6.65;2.63;;;;;;;;;;5054675;28;20033;-83
2022/12/25 08:21:01;;;;;;;6.80;2.67;;;;;;;;;;5049149;28;20503;-82
2022/12/25 08:23:27;;;;;;;4.25;2.50;;;;;;;;;;5055612;28;20054;-84
2022/12/25 08:25:52;;;;;;;6.25;2.75;;;;;;;;;;5063160;28;20383;-84
2022/12/25 08:28:17;;;;;;;5.72;2.42;;;;;;;;;;5062009;28;20683;-80
2022/12/25 08:30:43;;;;;;;5.57;2.42;;;;;;;;;;5062964;28;20074;-84
2022/12/25 08:33:08;;;;;;;5.47;2.67;;;;;;;;;;5065137;28;20025;-85
2022/12/25 08:35:35;;;;;;;6.53;2.60;;;;;;;;;;5064742;28;20113;-82
2022/12/25 08:38:00;;;;;;;7.65;3.20;;;;;;;;;;5077847;28;20429;-83
2022/12/25 08:40:25;;;;;;;5.63;2.95;;;;;;;;;;5062294;28;20024;-85
2022/12/25 08:42:51;;;;;;;8.80;2.67;;;;;;;;;;5065694;28;20547;-84
2022/12/25 08:45:16;;;;;;;6.28;2.55;;;;;;;;;;5066181;28;20036;-85
2022/12/25 08:47:42;;;;;;;6.70;2.80;;;;;;;;;;5068230;28;20028;-84
2022/12/25 08:50:07;;;;;;;4.90;2.78;;;;;;;;;;5065803;28;20043;-82
2022/12/25 08:52:33;;;;;;;7.05;2.78;;;;;;;;;;5063747;28;20040;-84
2022/12/25 08:54:58;;;;;;;5.65;2.80;;;;;;;;;;5056429;28;20734;-83
2022/12/25 08:57:24;;;;;;;7.93;3.10;;;;;;;;;;5055245;28;20021;-85
2022/12/25 08:59:49;;;;;;;6.07;2.92;;;;;;;;;;5067420;28;20025;-82
2022/12/25 09:02:15;;;;;;;5.03;2.80;;;;;;;;;;5065028;28;20082;-85
2022/12/25 09:04:43;;;;;;;6.50;3.03;;;;;;;;;;5055457;28;20765;-85
2022/12/25 09:07:09;;;;;;;5.80;2.92;;;;;;;;;;5067632;28;20033;-85
2022/12/25 09:09:35;;;;;;;6.38;3.67;;;;;;;;;;5060312;28;20091;-79
2022/12/25 09:12:01;;;;;;;7.10;3.22;;;;;;;;;;5063710;28;20658;-84
2022/12/25 09:14:27;;;;;;;6.95;3.22;;;;;;;;;;5068367;28;20028;-84
2022/12/25 09:16:52;;;;;;;5.43;3.17;;;;;;;;;;5067687;28;20492;-86
2022/12/25 09:19:17;;;;;;;5.70;3.30;;;;;;;;;;5067309;28;20085;-84
2022/12/25 09:21:43;;;;;;;10.93;4.88;;;;;;;;;;5066061;28;20063;-85
2022/12/25 09:24:08;;;;;;;10.55;5.22;;;;;;;;;;5071914;28;20024;-85
2022/12/25 09:26:34;;;;;;;11.43;4.97;;;;;;;;;;5070227;28;20059;-85
2022/12/25 09:28:59;;;;;;;7.68;4.00;;;;;;;;;;5068351;28;20052;-84
2022/12/25 09:31:24;;;;;;;5.80;3.88;;;;;;;;;;5067856;28;20031;-85
2022/12/25 09:33:54;;;;;;;5.00;3.13;;;;;;;;;;5065658;28;20115;-84
2022/12/25 09:36:22;;;;;;;6.32;3.35;;;;;;;;;;5068291;28;20028;-80
2022/12/25 09:38:47;;;;;;;8.50;3.22;;;;;;;;;;5065563;28;20071;-84
2022/12/25 09:41:53;;;;;;;5.63;3.30;;;;;;;;;;5069304;28;20070;-84
2022/12/25 09:44:27;;;;;;;7.97;3.45;;;;;;;;;;5068845;28;20094;-84
2022/12/25 09:46:58;;;;;;;7.28;3.92;;;;;;;;;;5063262;28;20173;-82
2022/12/25 09:49:48;;;;;;;8.20;3.55;;;;;;;;;;5063668;28;20039;-84
2022/12/25 09:52:18;;;;;;;5.90;3.40;;;;;;;;;;5068423;28;20028;-84
2022/12/25 09:54:47;;;;;;;9.52;3.40;;;;;;;;;;5066467;28;20032;-84
2022/12/25 09:57:13;;;;;;;5.63;3.50;;;;;;;;;;5069491;28;20043;-83
2022/12/25 09:59:42;;;;;;;7.63;3.50;;;;;;;;;;5067591;28;20560;-83
2022/12/25 10:02:34;;;;;;;10.38;4.10;;;;;;;;;;5068301;28;20021;-84
2022/12/25 10:05:19;;;;;;;8.35;3.95;;;;;;;;;;5060621;28;20369;-80
2022/12/25 10:08:03;;;;;;;7.50;3.67;;;;;;;;;;5063549;28;20084;-84
2022/12/25 10:10:59;;;;;;;7.40;3.63;;;;;;;;;;5064701;28;20024;-84
2022/12/25 10:13:43;;;;;;;4.93;3.40;;;;;;;;;;5066516;28;20028;-84
2022/12/25 10:16:52;;;;;;;6.75;3.25;;;;;;;;;;5060414;28;20032;-83
2022/12/25 10:19:39;;;;;;;6.80;3.17;;;;;;;;;;5059529;28;20032;-84
2022/12/25 10:22:13;;;;;;;6.30;3.65;;;;;;;;;;5059808;28;20109;-84
2022/12/25 10:24:47;;;;;;;6.63;3.40;;;;;;;;;;5050279;28;20031;-84
2022/12/25 10:27:35;;;;;;;8.85;3.97;;;;;;;;;;5064633;28;20049;-83
2022/12/25 10:30:19;;;;;;;7.28;3.88;;;;;;;;;;5062342;28;20047;-84
2022/12/25 10:32:44;;;;;;;;;;;;;;;;;;5084719;28;20380;-83
2022/12/25 10:35:21;;;;;;;7.30;4.43;;;;;;;;;;5064719;28;19912;-82
2022/12/25 10:38:08;;;;;;;8.02;4.47;;;;;;;;;;5058832;28;20032;-82
2022/12/25 10:40:33;;;;;;;5.63;3.67;;;;;;;;;;5065647;28;20107;-84
2022/12/25 10:43:17;;;;;;;8.60;3.28;;;;;;;;;;5066009;28;20103;-80
2022/12/25 10:45:47;;;;;;;7.30;3.88;;;;;;;;;;5067345;28;20063;-83
2022/12/25 10:48:21;;;;;;;6.72;3.40;;;;;;;;;;5065918;28;20036;-82
2022/12/25 10:50:47;;;;;;;6.85;4.20;;;;;;;;;;5063866;28;20070;-80
2022/12/25 10:53:22;;;;;;;8.73;4.00;;;;;;;;;;5067110;28;20032;-83
2022/12/25 10:55:59;;;;;;;7.00;3.42;;;;;;;;;;5063800;28;20119;-82
2022/12/25 10:58:25;;;;;;;6.97;3.95;;;;;;;;;;5068658;28;20024;-82
2022/12/25 11:01:03;;;;;;;6.30;3.95;;;;;;;;;;5057511;28;20028;-82
2022/12/25 11:03:32;;;;;;;9.82;4.40;;;;;;;;;;5065587;28;20094;-82
2022/12/25 11:06:01;;;;;;;6.25;3.97;;;;;;;;;;5065372;28;20439;-83
2022/12/25 11:08:30;;;;;;;6.10;3.92;;;;;;;;;;5068518;28;20488;-83
2022/12/25 11:11:04;;;;;;;8.20;3.90;;;;;;;;;;5075023;28;20025;-83
2022/12/25 11:13:36;;;;;;;7.50;4.25;;;;;;;;;;5069181;28;20104;-83
2022/12/25 11:16:02;;;;;;;7.78;4.30;;;;;;;;;;5060217;28;20038;-83
2022/12/25 11:18:46;;;;;;;8.75;4.22;;;;;;;;;;5065427;28;20465;-82
2022/12/25 11:21:14;;;;;;;6.85;4.20;;;;;;;;;;5067128;28;20085;-80
2022/12/25 11:23:44;;;;;;;7.03;3.60;;;;;;;;;;5059888;28;20033;-80
2022/12/25 11:26:10;;;;;;;6.20;3.75;;;;;;;;;;5060061;28;20508;-79
2022/12/25 11:28:39;;;;;;;6.60;3.88;;;;;;;;;;5064226;28;20468;-79
2022/12/25 11:31:12;;;;;;;8.73;4.15;;;;;;;;;;5061180;28;20025;-80
2022/12/25 11:34:15;;;;;;;6.80;4.07;;;;;;;;;;5061683;28;20033;-79
2022/12/25 11:36:46;;;;;;;7.50;4.20;;;;;;;;;;5057668;28;20388;-80
2022/12/25 11:39:28;;;;;;;6.03;3.47;;;;;;;;;;5069954;28;20039;-80
2022/12/25 11:42:18;;;;;;;6.32;3.80;;;;;;;;;;5069489;28;20030;-80
2022/12/25 11:44:53;;;;;;;6.32;3.35;;;;;;;;;;5073953;28;20039;-79
2022/12/25 11:47:36;;;;;;;8.13;3.88;;;;;;;;;;5065140;28;20546;-80
2022/12/25 11:50:28;;;;;;;6.63;3.58;;;;;;;;;;5062906;28;20025;-79
2022/12/25 11:52:54;;;;;;;8.68;3.92;;;;;;;;;;5066423;28;20044;-79
2022/12/25 11:55:31;;;;;;;7.25;3.70;;;;;;;;;;5067481;28;20020;-79
2022/12/25 11:58:03;;;;;;;8.23;3.90;;;;;;;;;;5068263;28;20024;-79
2022/12/25 12:00:32;;;;;;;7.65;3.78;;;;;;;;;;5063750;28;20040;-80
2022/12/25 12:03:21;;;;;;;9.13;4.28;;;;;;;;;;5063913;28;20027;-78
2022/12/25 12:05:57;;;;;;;6.95;3.47;;;;;;;;;;5060230;28;20025;-79
2022/12/25 12:08:22;;;;;;;5.80;3.70;;;;;;;;;;5063460;28;20036;-78
2022/12/25 12:11:15;;;;;;;8.77;3.85;;;;;;;;;;5064378;28;20053;-80
2022/12/25 12:14:04;;;;;;;8.95;4.75;;;;;;;;;;5061169;28;20098;-79
2022/12/25 12:16:29;;;;;;;8.70;4.32;;;;;;;;;;5067018;28;20086;-80
2022/12/25 12:18:55;;;;;;;8.00;3.80;;;;;;;;;;5064173;28;20024;-80
2022/12/25 12:21:27;;;;;;;8.07;4.07;;;;;;;;;;5067258;28;20020;-77
2022/12/25 12:24:04;;;;;;;5.93;3.42;;;;;;;;;;5069317;28;20032;-78
2022/12/25 12:26:36;;;;;;;5.53;3.67;;;;;;;;;;5067936;28;20086;-78
2022/12/25 12:29:04;;;;;;;7.85;3.72;;;;;;;;;;5063459;28;20044;-80
2022/12/25 12:31:45;;;;;;;6.72;3.80;;;;;;;;;;5070867;28;20036;-80
2022/12/25 12:34:41;;;;;;;8.18;4.03;;;;;;;;;;5066897;28;20471;-80
2022/12/25 12:37:15;;;;;;;6.25;3.85;;;;;;;;;;5066194;28;20039;-77
2022/12/25 12:39:41;;;;;;;6.32;4.00;;;;;;;;;;5063538;28;20031;-79
2022/12/25 12:42:19;;;;;;;5.15;3.47;;;;;;;;;;5070569;28;20534;-79
2022/12/25 12:44:47;;;;;;;6.57;4.05;;;;;;;;;;5064912;28;20586;-79
2022/12/25 12:47:48;;;;;;;7.13;4.40;;;;;;;;;;5063880;28;20035;-79
2022/12/25 12:50:32;;;;;;;7.10;4.05;;;;;;;;;;5064433;28;20040;-80
2022/12/25 12:52:58;;;;;;;6.55;4.10;;;;;;;;;;5062881;28;20029;-79
2022/12/25 12:55:32;;;;;;;8.20;4.88;;;;;;;;;;5066475;28;20480;-80
2022/12/25 12:58:03;;;;;;;7.53;4.88;;;;;;;;;;5069766;28;20037;-80
2022/12/25 13:00:37;;;;;;;8.98;4.97;;;;;;;;;;5069048;28;20392;-79
2022/12/25 13:03:23;;;;;;;8.48;4.53;;;;;;;;;;5070039;28;20099;-79
2022/12/25 13:05:55;;;;;;;9.05;5.05;;;;;;;;;;5068309;28;20108;-79
2022/12/25 13:08:42;;;;;;;7.50;4.82;;;;;;;;;;5063055;28;20032;-79
2022/12/25 13:11:21;;;;;;;8.18;4.63;;;;;;;;;;5065968;28;20028;-79
2022/12/25 13:13:49;;;;;;;7.68;4.65;;;;;;;;;;5064165;28;20025;-80
2022/12/25 13:16:23;;;;;;;8.00;4.57;;;;;;;;;;5062534;28;20035;-80
2022/12/25 13:18:53;;;;;;;7.78;5.30;;;;;;;;;;5067971;28;20468;-79
2022/12/25 13:21:37;;;;;;;7.10;5.07;;;;;;;;;;5064156;28;20044;-80
2022/12/25 13:24:09;;;;;;;9.27;4.95;;;;;;;;;;5058602;28;20222;-78
2022/12/25 13:26:35;;;;;;;8.20;5.85;;;;;;;;;;5060344;28;20133;-80
2022/12/25 13:29:00;;;;;;;9.52;5.80;;;;;;;;;;5063233;28;21028;-80
2022/12/25 13:31:30;;;;;;;8.45;5.25;;;;;;;;;;5063853;28;20064;-79
2022/12/25 13:34:02;;;;;;;9.30;5.65;;;;;;;;;;5060840;28;20028;-78
2022/12/25 13:36:33;;;;;;;7.50;5.80;;;;;;;;;;5063339;28;20111;-79
2022/12/25 13:38:59;;;;;;;8.38;5.45;;;;;;;;;;5068894;28;20272;-79
2022/12/25 13:44:22;;;;;;;10.20;6.40;;;;;;;;;;5065315;28;20035;-79
2022/12/25 13:46:48;;;;;;;9.98;6.45;;;;;;;;;;5055762;28;20425;-79
2022/12/25 13:49:19;;;;;;;9.35;6.05;;;;;;;;;;5058301;28;20044;-80
2022/12/25 13:51:45;;;;;;;9.88;6.50;;;;;;;;;;5068380;28;20480;-78
2022/12/25 13:54:12;;;;;;;9.73;6.28;;;;;;;;;;5063863;28;20107;-80
2022/12/25 13:56:49;;;;;;;10.23;6.80;;;;;;;;;;5061096;28;20040;-80
2022/12/25 13:59:17;;;;;;;9.55;6.25;;;;;;;;;;5068034;28;20025;-80
2022/12/25 14:01:43;;;;;;;10.35;6.03;;;;;;;;;;5068197;28;20123;-80
2022/12/25 14:04:21;;;;;;;9.38;6.13;;;;;;;;;;5061078;28;20085;-80
2022/12/25 14:06:47;;;;;;;9.00;5.47;;;;;;;;;;5061671;28;20103;-79
2022/12/25 14:09:13;;;;;;;9.93;5.82;;;;;;;;;;5058680;28;20068;-80
2022/12/25 14:11:49;;;;;;;9.35;6.10;;;;;;;;;;5066660;28;20491;-80
2022/12/25 14:14:23;;;;;;;10.98;6.32;;;;;;;;;;5065365;28;20468;-80
2022/12/25 14:16:52;;;;;;;8.05;5.50;;;;;;;;;;5069406;28;20446;-80
2022/12/25 14:19:31;;;;;;;8.30;5.88;;;;;;;;;;5069365;28;20099;-80
2022/12/25 14:21:56;;;;;;;8.00;5.28;;;;;;;;;;5064550;28;20017;-80
2022/12/25 14:24:24;;;;;;;8.27;5.72;;;;;;;;;;5070507;28;21504;-80
2022/12/25 14:27:00;;;;;;;8.50;5.47;;;;;;;;;;5075710;28;20051;-79
2022/12/25 14:29:33;;;;;;;9.20;5.50;;;;;;;;;;5063245;28;20047;-78
2022/12/25 14:32:03;;;;;;;8.68;5.80;;;;;;;;;;5070229;28;20507;-79
2022/12/25 14:34:31;;;;;;;10.00;5.70;;;;;;;;;;5077329;28;20106;-80
2022/12/25 14:36:56;;;;;;;7.93;5.57;;;;;;;;;;5070587;28;20028;-79
2022/12/25 14:39:45;;;;;;;9.50;5.38;;;;;;;;;;5069063;28;20072;-80
2022/12/25 14:42:26;;;;;;;9.80;5.22;;;;;;;;;;5064780;28;20491;-81
2022/12/25 14:44:59;;;;;;;8.85;5.45;;;;;;;;;;5066851;28;20473;-80
2022/12/25 14:47:25;;;;;;;7.68;5.22;;;;;;;;;;5066644;28;20028;-80
2022/12/25 14:49:52;;;;;;;9.05;5.82;;;;;;;;;;5066640;28;20041;-80
2022/12/25 14:52:30;;;;;;;9.35;6.05;;;;;;;;;;5065430;28;20044;-80
2022/12/25 14:55:07;;;;;;;8.50;5.40;;;;;;;;;;5071430;28;20538;-80
2022/12/25 14:57:38;;;;;;;7.15;5.15;;;;;;;;;;5070495;28;20807;-80
2022/12/25 15:00:21;;;;;;;7.18;4.93;;;;;;;;;;5070918;28;20033;-80
2022/12/25 15:02:48;;;;;;;7.78;5.15;;;;;;;;;;5070082;28;20033;-79
2022/12/25 15:05:28;;;;;;;7.47;5.35;;;;;;;;;;5064682;28;20052;-80
2022/12/25 15:08:12;;;;;;;7.75;5.65;;;;;;;;;;5070452;28;20048;-80
2022/12/25 15:10:39;;;;;;;7.85;5.40;;;;;;;;;;5072146;28;20467;-79
2022/12/25 15:13:04;;;;;;;8.10;5.63;;;;;;;;;;5084758;28;20017;-80
2022/12/25 15:15:31;;;;;;;8.63;5.93;;;;;;;;;;5066142;28;20075;-79
2022/12/25 15:17:59;;;;;;;9.27;6.40;;;;;;;;;;5070650;28;20031;-79
2022/12/25 15:20:30;;;;;;;9.43;6.30;;;;;;;;;;5064999;28;20415;-80
2022/12/25 15:22:55;;;;;;;10.45;7.55;;;;;;;;;;5070900;28;20024;-80
2022/12/25 15:25:21;;;;;;;11.13;6.78;;;;;;;;;;5067298;28;20024;-80
2022/12/25 15:27:47;;;;;;;10.65;6.30;;;;;;;;;;5069983;28;20040;-80
2022/12/25 15:30:13;;;;;;;10.80;6.38;;;;;;;;;;5071213;28;20044;-80
2022/12/25 15:32:38;;;;;;;9.88;6.38;;;;;;;;;;5082237;28;20025;-78
2022/12/25 15:35:04;;;;;;;9.00;6.38;;;;;;;;;;5069102;28;20057;-80
2022/12/25 15:37:29;;;;;;;9.65;6.72;;;;;;;;;;5065744;28;20400;-77
2022/12/25 15:39:55;;;;;;;8.40;6.25;;;;;;;;;;5069561;28;20029;-80
2022/12/25 15:42:22;;;;;;;8.27;5.85;;;;;;;;;;5071899;28;20031;-80
2022/12/25 15:44:48;;;;;;;9.07;6.07;;;;;;;;;;5070185;28;20104;-80
2022/12/25 15:47:15;;;;;;;9.10;6.18;;;;;;;;;;5065960;28;20107;-80
2022/12/25 15:49:41;;;;;;;8.65;5.45;;;;;;;;;;5073436;28;20032;-80
2022/12/25 15:52:11;;;;;;;9.13;6.25;;;;;;;;;;5081382;28;20056;-79
2022/12/25 15:54:36;;;;;;;8.48;6.00;;;;;;;;;;5072251;28;20016;-80
2022/12/25 15:57:04;;;;;;;9.63;6.28;;;;;;;;;;5084682;28;20051;-80
2022/12/25 15:59:30;;;;;;;9.48;5.95;;;;;;;;;;5071877;28;20052;-80
2022/12/25 16:01:58;;;;;;;8.00;5.05;;;;;;;;;;5073704;28;20465;-80
2022/12/25 16:04:25;;;;;;;8.05;5.75;;;;;;;;;;5074620;28;20396;-80
2022/12/25 16:06:51;;;;;;;7.57;5.18;;;;;;;;;;5071665;28;20115;-80
2022/12/25 16:09:21;;;;;;;8.15;5.70;;;;;;;;;;5074953;28;20520;-80
2022/12/25 16:11:47;;;;;;;9.13;5.63;;;;;;;;;;5075697;28;20435;-80
2022/12/25 16:14:13;;;;;;;8.60;5.82;;;;;;;;;;5069852;28;20074;-79
2022/12/25 16:16:39;;;;;;;7.47;5.00;;;;;;;;;;5074337;28;20020;-80
2022/12/25 16:19:04;;;;;;;8.88;5.57;;;;;;;;;;5073493;28;20090;-80
2022/12/25 16:21:43;;;;;;;8.32;5.82;;;;;;;;;;5064637;28;20032;-80
2022/12/25 16:24:09;;;;;;;9.35;6.40;;;;;;;;;;5070760;28;20020;-80
2022/12/25 16:26:34;;;;;;;8.95;5.93;;;;;;;;;;5072825;28;20056;-80
2022/12/25 16:29:01;;;;;;;9.90;6.38;;;;;;;;;;5069637;28;20036;-80
2022/12/25 16:31:26;;;;;;;10.23;6.25;;;;;;;;;;5072488;28;20043;-80
2022/12/25 16:33:53;;;;;;;8.07;5.85;;;;;;;;;;5072692;28;20024;-80
2022/12/25 16:36:18;;;;;;;8.25;5.60;;;;;;;;;;5068396;28;20437;-80
2022/12/25 16:38:44;;;;;;;12.70;6.93;;;;;;;;;;5069561;28;20055;-80